createdAt,value
2018-12-13T00:01:06.765Z,2.40
2018-12-13T00:03:36.352Z,2.40
2018-12-13T00:06:05.183Z,2.40
2018-12-13T00:08:34.016Z,2.30
2018-12-13T00:11:02.857Z,2.30
2018-12-13T00:13:31.702Z,2.20
2018-12-13T00:16:00.543Z,2.20
2018-12-13T00:18:29.376Z,2.20
2018-12-13T00:20:58.948Z,2.20
2018-12-13T00:23:27.795Z,2.10
2018-12-13T00:25:56.686Z,2.10
2018-12-13T00:28:25.463Z,2.10
2018-12-13T00:30:55.039Z,2.00
2018-12-13T00:33:23.860Z,1.90
2018-12-13T00:35:53.442Z,1.90
2018-12-13T00:38:22.270Z,2.00
2018-12-13T00:40:51.843Z,1.90
2018-12-13T00:43:20.690Z,1.90
2018-12-13T00:45:49.531Z,2.00
2018-12-13T00:48:18.370Z,2.00
2018-12-13T00:50:47.265Z,2.10
2018-12-13T00:53:16.438Z,2.00
2018-12-13T00:55:45.278Z,2.10
2018-12-13T00:58:14.121Z,2.10
2018-12-13T01:00:42.951Z,2.10
2018-12-13T01:03:11.775Z,2.10
2018-12-13T01:05:40.766Z,2.00
2018-12-13T01:08:09.471Z,2.10
2018-12-13T01:10:38.316Z,2.10
2018-12-13T01:13:07.143Z,2.10
2018-12-13T01:15:35.983Z,1.90
2018-12-13T01:18:04.815Z,2.00
2018-12-13T01:20:34.384Z,1.90
2018-12-13T01:23:03.218Z,2.00
2018-12-13T01:25:32.043Z,1.90
2018-12-13T01:28:00.891Z,1.90
2018-12-13T01:30:29.727Z,1.90
2018-12-13T01:32:58.562Z,1.90
2018-12-13T01:35:28.147Z,1.80
2018-12-13T01:37:56.985Z,1.80
2018-12-13T01:40:25.820Z,1.80
2018-12-13T01:42:54.664Z,1.70
2018-12-13T01:45:23.530Z,1.70
2018-12-13T03:15:18.468Z,1.40
2018-12-13T03:17:47.301Z,1.40
2018-12-13T03:20:16.142Z,1.30
2018-12-13T03:22:44.974Z,1.30
2018-12-13T03:25:13.819Z,1.30
2018-12-13T03:27:48.447Z,1.30
2018-12-13T03:30:17.297Z,1.30
2018-12-13T03:32:46.200Z,1.30
2018-12-13T03:35:14.999Z,1.30
2018-12-13T03:37:43.899Z,1.30
2018-12-13T03:40:12.715Z,1.30
2018-12-13T03:42:41.568Z,1.30
2018-12-13T03:45:10.415Z,1.30
2018-12-13T03:47:39.267Z,1.30
2018-12-13T03:50:08.117Z,1.30
2018-12-13T03:52:36.954Z,1.30
2018-12-13T03:55:05.786Z,1.30
2018-12-13T03:57:34.651Z,1.30
2018-12-13T04:00:03.499Z,1.20
2018-12-13T04:02:32.334Z,1.20
2018-12-13T04:05:01.191Z,1.20
2018-12-13T04:07:30.034Z,1.30
2018-12-13T04:09:58.876Z,1.20
2018-12-13T04:12:27.728Z,1.20
2018-12-13T04:14:56.564Z,1.10
2018-12-13T04:17:25.504Z,1.20
2018-12-13T04:19:54.256Z,1.10
2018-12-13T04:22:23.115Z,1.20
2018-12-13T04:24:51.955Z,1.20
2018-12-13T04:27:20.802Z,1.20
2018-12-13T04:29:49.657Z,1.20
2018-12-13T04:32:18.493Z,1.20
2018-12-13T04:34:47.341Z,1.10
2018-12-13T04:37:16.175Z,1.20
2018-12-13T04:39:45.028Z,1.20
2018-12-13T04:42:13.862Z,1.10
2018-12-13T04:44:43.431Z,1.10
2018-12-13T04:47:12.261Z,1.10
2018-12-13T04:49:41.843Z,1.10
2018-12-13T04:52:10.673Z,1.10
2018-12-13T04:54:39.517Z,1.10
2018-12-13T04:57:08.352Z,1.10
2018-12-13T04:59:37.183Z,1.10
2018-12-13T05:02:06.021Z,1.10
2018-12-13T05:04:35.601Z,1.00
2018-12-13T05:07:04.445Z,1.00
2018-12-13T05:09:33.274Z,1.10
2018-12-13T05:12:02.128Z,1.10
2018-12-13T05:14:30.957Z,1.00
2018-12-13T05:16:59.789Z,1.00
2018-12-13T05:19:28.628Z,1.00
2018-12-13T05:21:57.479Z,1.00
2018-12-13T05:24:26.319Z,1.00
2018-12-13T05:26:55.897Z,0.90
2018-12-13T05:29:24.734Z,1.00
2018-12-13T05:31:53.560Z,1.00
2018-12-13T05:34:22.405Z,0.90
2018-12-13T05:36:51.978Z,0.80
2018-12-13T05:39:20.808Z,0.80
2018-12-13T05:41:49.661Z,0.70
2018-12-13T05:44:18.493Z,0.70
2018-12-13T05:46:47.341Z,0.70
2018-12-13T05:49:16.178Z,0.70
2018-12-13T05:51:45.035Z,0.70
2018-12-13T05:54:13.882Z,0.60
2018-12-13T05:56:42.710Z,0.70
2018-12-13T05:59:12.296Z,0.60
2018-12-13T06:01:41.133Z,0.60
2018-12-13T06:04:09.978Z,0.50
2018-12-13T06:06:39.278Z,0.50
2018-12-13T06:09:08.100Z,0.60
2018-12-13T06:11:36.940Z,0.70
2018-12-13T06:14:06.511Z,0.70
2018-12-13T06:16:35.345Z,0.70
2018-12-13T06:19:04.170Z,0.80
2018-12-13T06:21:36.818Z,0.80
2018-12-13T06:24:02.572Z,0.80
2018-12-13T06:26:31.400Z,0.80
2018-12-13T06:29:00.255Z,0.80
2018-12-13T06:31:29.099Z,0.80
2018-12-13T06:33:57.922Z,0.80
2018-12-13T06:36:27.502Z,0.70
2018-12-13T06:38:56.342Z,0.80
2018-12-13T06:41:25.188Z,0.80
2018-12-13T06:43:54.033Z,0.80
2018-12-13T06:46:22.861Z,0.80
2018-12-13T06:48:51.692Z,0.80
2018-12-13T06:51:20.526Z,0.80
2018-12-13T06:53:49.351Z,0.80
2018-12-13T06:56:18.202Z,0.80
2018-12-13T06:58:47.032Z,0.70
2018-12-13T07:01:15.873Z,0.70
2018-12-13T07:03:44.723Z,0.70
2018-12-13T07:06:13.562Z,0.70
2018-12-13T07:08:42.514Z,0.80
2018-12-13T07:11:11.325Z,0.80
2018-12-13T07:13:40.103Z,0.80
2018-12-13T07:16:08.930Z,0.80
2018-12-13T07:18:37.774Z,0.80
2018-12-13T07:21:06.611Z,0.80
2018-12-13T07:23:35.452Z,0.80
2018-12-13T07:26:04.282Z,0.70
2018-12-13T07:28:33.184Z,0.70
2018-12-13T07:31:02.759Z,0.60
2018-12-13T07:33:31.596Z,0.70
2018-12-13T07:36:00.440Z,0.70
2018-12-13T07:38:29.271Z,0.70
2018-12-13T07:40:58.107Z,0.70
2018-12-13T07:43:26.948Z,0.70
2018-12-13T07:45:56.529Z,0.70
2018-12-13T07:48:25.432Z,0.70
2018-12-13T07:50:54.216Z,0.70
2018-12-13T07:53:23.067Z,0.70
2018-12-13T07:55:51.923Z,0.70
2018-12-13T07:58:20.774Z,0.80
2018-12-13T08:00:49.616Z,0.80
2018-12-13T08:03:18.456Z,0.80
2018-12-13T08:05:47.301Z,0.80
2018-12-13T08:08:20.826Z,0.90
2018-12-13T08:10:45.733Z,0.90
2018-12-13T08:13:14.569Z,0.90
2018-12-13T08:15:43.424Z,1.00
2018-12-13T08:18:13.018Z,1.00
2018-12-13T08:20:41.883Z,1.10
2018-12-13T08:23:10.753Z,1.20
2018-12-13T08:25:40.293Z,1.20
2018-12-13T08:28:09.137Z,1.20
2018-12-13T08:30:37.987Z,1.20
2018-12-13T08:33:06.820Z,1.20
2018-12-13T08:35:35.660Z,1.20
2018-12-13T08:38:04.521Z,1.20
2018-12-13T08:40:33.347Z,1.20
2018-12-13T08:43:02.932Z,1.20
2018-12-13T08:45:31.766Z,1.30
2018-12-13T08:48:00.612Z,1.30
2018-12-13T08:50:29.438Z,1.30
2018-12-13T08:52:58.276Z,1.30
2018-12-13T08:55:27.112Z,1.30
2018-12-13T08:57:56.712Z,1.40
2018-12-13T09:00:25.555Z,1.40
2018-12-13T09:02:54.382Z,1.40
2018-12-13T09:05:23.229Z,1.40
2018-12-13T09:07:52.069Z,1.50
2018-12-13T09:10:21.659Z,1.50
2018-12-13T09:12:50.494Z,1.50
2018-12-13T09:15:19.893Z,1.50
2018-12-13T09:17:48.181Z,1.60
2018-12-13T09:20:17.018Z,1.50
2018-12-13T09:22:45.858Z,1.50
2018-12-13T09:25:14.706Z,1.40
2018-12-13T09:27:43.557Z,1.50
2018-12-13T09:31:13.709Z,1.40
2018-12-13T09:33:42.538Z,1.50
2018-12-13T09:36:12.127Z,1.50
2018-12-13T09:38:40.986Z,1.60
2018-12-13T09:41:09.826Z,1.60
2018-12-13T09:43:38.709Z,1.60
2018-12-13T09:46:07.510Z,1.60
2018-12-13T09:48:36.355Z,1.60
2018-12-13T09:51:05.193Z,1.60
2018-12-13T09:53:34.030Z,1.70
2018-12-13T09:56:02.864Z,1.60
2018-12-13T09:58:31.716Z,1.70
2018-12-13T10:01:00.579Z,1.90
2018-12-13T10:03:29.407Z,2.00
2018-12-13T10:05:58.265Z,2.10
2018-12-13T10:08:27.173Z,2.10
2018-12-13T10:10:55.978Z,2.20
2018-12-13T10:13:25.840Z,2.30
2018-12-13T10:15:54.428Z,2.30
2018-12-13T10:18:23.274Z,2.40
2018-12-13T10:20:52.863Z,2.40
2018-12-13T10:23:21.706Z,2.40
2018-12-13T10:25:50.536Z,2.40
2018-12-13T10:28:19.381Z,2.50
2018-12-13T10:30:48.223Z,2.60
2018-12-13T10:33:17.811Z,2.60
2018-12-13T10:35:46.672Z,2.70
2018-12-13T10:38:15.502Z,2.70
2018-12-13T10:40:44.339Z,2.80
2018-12-13T10:43:13.177Z,2.80
2018-12-13T10:45:42.017Z,2.80
2018-12-13T10:48:10.852Z,2.80
2018-12-13T10:50:39.717Z,2.80
2018-12-13T10:53:08.569Z,2.80
2018-12-13T10:55:37.406Z,3.00
2018-12-13T10:58:06.245Z,3.00
2018-12-13T11:00:36.969Z,3.20
2018-12-13T11:03:19.585Z,3.20
2018-12-13T11:05:48.453Z,3.20
2018-12-13T11:08:17.308Z,3.30
2018-12-13T11:10:46.141Z,3.30
2018-12-13T11:13:14.992Z,3.40
2018-12-13T11:15:43.889Z,3.40
2018-12-13T11:18:12.690Z,3.50
2018-12-13T11:23:10.972Z,3.40
2018-12-13T11:25:39.812Z,3.40
2018-12-13T11:28:25.426Z,3.30
2018-12-13T11:30:54.265Z,3.30
2018-12-13T11:33:23.120Z,3.20
2018-12-13T11:35:51.973Z,3.30
2018-12-13T11:38:21.771Z,3.40
2018-12-13T11:40:50.612Z,3.30
2018-12-13T11:43:19.461Z,3.40
2018-12-13T11:45:48.312Z,4.00
2018-12-13T11:48:17.902Z,4.30
2018-12-13T11:50:46.731Z,4.30
2018-12-13T11:53:15.578Z,4.50
2018-12-13T11:55:44.426Z,4.70
2018-12-13T11:58:13.274Z,4.70
2018-12-13T12:00:42.141Z,4.70
2018-12-13T12:03:11.026Z,4.50
2018-12-13T12:05:39.823Z,4.10
2018-12-13T12:08:08.668Z,3.90
2018-12-13T12:10:37.519Z,3.80
2018-12-13T12:13:07.108Z,3.60
2018-12-13T12:15:35.967Z,3.60
2018-12-13T12:18:04.807Z,3.60
2018-12-13T12:20:33.655Z,3.60
2018-12-13T12:23:02.497Z,3.50
2018-12-13T12:25:31.333Z,3.50
2018-12-13T12:28:00.179Z,3.50
2018-12-13T12:30:29.049Z,3.50
2018-12-13T12:32:58.635Z,3.40
2018-12-13T12:35:27.480Z,3.50
2018-12-13T12:37:56.358Z,3.50
2018-12-13T12:40:25.175Z,3.50
2018-12-13T12:42:54.042Z,3.50
2018-12-13T12:45:22.883Z,3.60
2018-12-13T12:47:51.719Z,3.60
2018-12-13T12:50:20.570Z,3.70
2018-12-13T12:52:49.446Z,3.70
2018-12-13T12:55:18.283Z,3.70
2018-12-13T12:57:47.130Z,3.60
2018-12-13T13:00:16.036Z,3.60
2018-12-13T13:02:45.619Z,3.60
2018-12-13T13:05:14.527Z,3.60
2018-12-13T13:07:43.340Z,3.60
2018-12-13T13:10:12.180Z,3.60
2018-12-13T13:12:41.023Z,3.60
2018-12-13T13:15:09.873Z,3.50
2018-12-13T13:17:38.725Z,3.60
2018-12-13T13:20:07.576Z,3.60
2018-12-13T13:22:36.450Z,3.60
2018-12-13T13:25:05.311Z,3.60
2018-12-13T13:27:34.146Z,3.60
2018-12-13T13:30:03.005Z,3.60
2018-12-13T13:32:31.859Z,3.50
2018-12-13T13:35:00.706Z,3.50
2018-12-13T13:37:29.557Z,3.40
2018-12-13T13:39:58.436Z,3.30
2018-12-13T13:42:27.290Z,3.30
2018-12-13T13:44:56.167Z,3.30
2018-12-13T13:47:25.746Z,3.30
2018-12-13T13:49:54.583Z,3.30
2018-12-13T13:52:23.416Z,3.30
2018-12-13T13:54:52.250Z,3.30
2018-12-13T13:57:21.102Z,3.30
2018-12-13T13:59:49.989Z,3.30
2018-12-13T14:02:18.837Z,3.30
2018-12-13T14:04:47.683Z,3.20
2018-12-13T14:07:17.306Z,3.20
2018-12-13T14:09:46.128Z,3.30
2018-12-13T14:12:14.962Z,3.30
2018-12-13T14:14:43.793Z,3.20
2018-12-13T14:17:12.643Z,3.20
2018-12-13T14:19:41.542Z,3.20
2018-12-13T14:22:10.349Z,3.20
2018-12-13T14:24:39.226Z,3.20
2018-12-13T14:27:08.803Z,3.20
2018-12-13T14:29:37.667Z,3.20
2018-12-13T14:32:06.573Z,3.20
2018-12-13T14:34:35.402Z,3.10
2018-12-13T14:37:04.986Z,3.00
2018-12-13T14:39:33.852Z,3.00
2018-12-13T14:42:02.698Z,3.10
2018-12-13T14:44:31.540Z,3.10
2018-12-13T14:47:00.384Z,3.00
2018-12-13T14:49:29.227Z,3.00
2018-12-13T14:54:27.541Z,3.00
2018-12-13T14:56:57.147Z,2.90
2018-12-13T14:59:25.971Z,3.00
2018-12-13T15:01:54.810Z,2.90
2018-12-13T15:04:23.680Z,2.80
2018-12-13T15:06:52.528Z,2.90
2018-12-13T15:09:21.368Z,2.90
2018-12-13T15:11:50.202Z,2.80
2018-12-13T15:14:19.062Z,2.80
2018-12-13T15:16:47.967Z,2.70
2018-12-13T15:19:18.340Z,2.70
2018-12-13T15:21:46.402Z,2.80
2018-12-13T15:24:15.243Z,2.70
2018-12-13T15:26:44.107Z,2.70
2018-12-13T15:29:12.952Z,2.80
2018-12-13T15:31:42.570Z,2.70
2018-12-13T15:34:15.630Z,2.80
2018-12-13T15:36:44.462Z,2.70
2018-12-13T15:39:13.301Z,2.70
2018-12-13T15:41:42.142Z,2.70
2018-12-13T15:44:10.977Z,2.60
2018-12-13T15:46:39.888Z,2.60
2018-12-13T15:49:08.682Z,2.70
2018-12-13T15:51:38.264Z,2.60
2018-12-13T15:54:07.090Z,2.70
2018-12-13T15:56:35.942Z,2.70
2018-12-13T15:59:04.783Z,2.60
2018-12-13T16:01:33.612Z,2.60
2018-12-13T16:04:02.446Z,2.60
2018-12-13T16:06:31.282Z,2.60
2018-12-13T16:09:00.129Z,2.60
2018-12-13T16:11:28.966Z,2.70
2018-12-13T16:13:57.814Z,2.70
2018-12-13T16:16:26.659Z,2.70
2018-12-13T16:18:55.499Z,2.60
2018-12-13T16:21:24.341Z,2.60
2018-12-13T16:23:53.206Z,2.60
2018-12-13T16:26:22.077Z,2.60
2018-12-13T16:28:50.892Z,2.60
2018-12-13T16:31:19.714Z,2.60
2018-12-13T16:33:48.564Z,2.60
2018-12-13T16:36:17.408Z,2.70
2018-12-13T16:38:49.963Z,2.60
2018-12-13T16:41:18.665Z,2.60
2018-12-13T16:43:47.500Z,2.60
2018-12-13T16:46:16.323Z,2.60
2018-12-13T16:48:45.185Z,2.60
2018-12-13T16:51:14.027Z,2.60
2018-12-13T16:53:42.869Z,2.60
2018-12-13T16:56:11.716Z,2.60
2018-12-13T16:58:40.562Z,2.60
2018-12-13T17:01:09.417Z,2.60
2018-12-13T17:03:38.264Z,2.60
2018-12-13T17:06:07.101Z,2.60
2018-12-13T17:08:35.944Z,2.60
2018-12-13T17:11:04.813Z,2.60
2018-12-13T17:13:34.399Z,2.50
2018-12-13T17:16:03.248Z,2.50
2018-12-13T17:18:32.086Z,2.50
2018-12-13T17:21:00.926Z,2.50
2018-12-13T17:23:29.791Z,2.50
2018-12-13T17:25:59.371Z,2.50
2018-12-13T17:28:28.230Z,2.60
2018-12-13T17:30:57.088Z,2.60
2018-12-13T17:33:25.996Z,2.60
2018-12-13T17:35:54.825Z,2.60
2018-12-13T17:38:23.768Z,2.60
2018-12-13T17:40:52.628Z,2.60
2018-12-13T17:43:21.483Z,2.60
2018-12-13T17:45:50.324Z,2.70
2018-12-13T17:48:19.168Z,2.60
2018-12-13T17:50:48.026Z,2.60
2018-12-13T17:53:16.860Z,2.50
2018-12-13T17:58:15.124Z,2.50
2018-12-13T18:00:43.972Z,2.50
2018-12-13T18:03:12.831Z,2.60
2018-12-13T18:08:11.221Z,2.60
2018-12-13T18:10:40.068Z,2.50
2018-12-13T18:13:08.913Z,2.60
2018-12-13T18:15:37.767Z,2.40
2018-12-13T18:18:06.616Z,2.50
2018-12-13T18:20:35.488Z,2.50
2018-12-13T18:23:04.291Z,2.50
2018-12-13T18:25:33.141Z,2.50
2018-12-13T18:28:01.993Z,2.40
2018-12-13T18:30:30.822Z,2.40
2018-12-13T18:32:59.664Z,2.50
2018-12-13T18:35:28.496Z,2.50
2018-12-13T18:37:57.331Z,2.50
2018-12-13T18:40:26.200Z,2.50
2018-12-13T18:42:55.784Z,2.50
2018-12-13T18:45:24.634Z,2.50
2018-12-13T18:47:53.478Z,2.50
2018-12-13T18:50:22.337Z,2.50
2018-12-13T18:52:51.197Z,2.50
2018-12-13T18:55:20.037Z,2.50
2018-12-13T18:57:48.900Z,2.40
2018-12-13T19:00:17.753Z,2.50
2018-12-13T19:02:46.597Z,2.40
2018-12-13T19:07:44.857Z,2.40
2018-12-13T19:10:13.708Z,2.40
2018-12-13T19:12:42.568Z,2.40
2018-12-13T19:15:11.411Z,2.40
2018-12-13T19:17:40.277Z,2.40
2018-12-13T19:20:09.912Z,2.40
2018-12-13T19:22:39.562Z,2.40
2018-12-13T19:25:08.441Z,2.40
2018-12-13T19:27:37.245Z,2.40
2018-12-13T19:30:06.825Z,2.40
2018-12-13T19:32:35.665Z,2.40
2018-12-13T19:35:05.268Z,2.40
2018-12-13T19:37:34.851Z,2.40
2018-12-13T19:42:33.134Z,2.40
2018-12-13T19:45:01.968Z,2.40
2018-12-13T19:47:30.820Z,2.40
2018-12-13T19:50:00.414Z,2.40
2018-12-13T19:52:29.257Z,2.40
2018-12-13T19:54:58.099Z,2.40
2018-12-13T19:57:26.944Z,2.40
2018-12-13T19:59:55.788Z,2.50
2018-12-13T20:02:24.624Z,2.40
2018-12-13T20:04:53.481Z,2.50
2018-12-13T20:07:23.076Z,2.40
2018-12-13T20:09:51.950Z,2.50
2018-12-13T20:12:20.842Z,2.50
2018-12-13T20:14:49.645Z,2.50
2018-12-13T20:17:18.483Z,2.50
2018-12-13T20:19:47.335Z,2.40
2018-12-13T20:22:16.925Z,2.40
2018-12-13T20:24:46.499Z,2.40
2018-12-13T20:27:15.348Z,2.40
2018-12-13T20:29:44.221Z,2.40
2018-12-13T20:32:13.813Z,2.40
2018-12-13T20:34:42.697Z,2.50
2018-12-13T20:37:11.536Z,2.50
2018-12-13T20:39:40.383Z,2.40
2018-12-13T20:42:09.247Z,2.40
2018-12-13T20:44:38.103Z,2.50
2018-12-13T20:47:06.977Z,2.40
2018-12-13T20:49:35.831Z,2.40
2018-12-13T20:52:04.665Z,2.40
2018-12-13T20:54:33.524Z,2.40
2018-12-13T20:57:03.117Z,2.40
2018-12-13T20:59:31.957Z,2.40
2018-12-13T21:02:00.809Z,2.40
2018-12-13T21:04:29.660Z,2.40
2018-12-13T21:07:04.114Z,2.40
2018-12-13T21:09:33.705Z,2.40
2018-12-13T21:12:02.541Z,2.30
2018-12-13T21:14:31.394Z,2.40
2018-12-13T21:17:01.006Z,2.40
2018-12-13T21:19:29.876Z,2.40
2018-12-13T21:21:58.715Z,2.40
2018-12-13T21:24:27.555Z,2.40
2018-12-13T21:26:56.382Z,2.30
2018-12-13T21:29:25.259Z,2.30
2018-12-13T21:31:54.100Z,2.30
2018-12-13T21:34:22.991Z,2.40
2018-12-13T21:36:51.804Z,2.40
2018-12-13T21:39:20.663Z,2.30
2018-12-13T21:41:49.509Z,2.40
2018-12-13T21:44:19.226Z,2.30
2018-12-13T21:46:48.064Z,2.30
2018-12-13T21:49:16.901Z,2.40
2018-12-13T21:51:46.498Z,2.30
2018-12-13T21:54:16.103Z,2.30
2018-12-13T21:56:44.955Z,2.30
2018-12-13T21:59:13.789Z,2.40
2018-12-13T22:01:42.644Z,2.30
2018-12-13T22:04:11.554Z,2.40
2018-12-13T22:06:41.138Z,2.30
2018-12-13T22:09:09.938Z,2.30
2018-12-13T22:11:38.782Z,2.30
2018-12-13T22:14:07.632Z,2.30
2018-12-13T22:16:36.505Z,2.40
2018-12-13T22:19:06.089Z,2.30
2018-12-13T22:24:04.335Z,2.30
2018-12-13T22:26:33.177Z,2.40
2018-12-13T22:29:02.020Z,2.30
2018-12-13T22:31:30.886Z,2.40
2018-12-13T22:33:59.687Z,2.30
2018-12-13T22:36:28.524Z,2.30
2018-12-13T22:38:58.115Z,2.30
2018-12-13T22:41:27.723Z,2.30
2018-12-13T22:43:57.308Z,2.40
2018-12-13T22:46:26.160Z,2.30
2018-12-13T22:48:55.001Z,2.30
2018-12-13T22:51:23.848Z,2.30
2018-12-13T22:53:53.017Z,2.30
2018-12-13T22:56:22.569Z,2.30
2018-12-13T22:58:51.412Z,2.30
2018-12-13T23:01:20.296Z,2.30
2018-12-13T23:03:49.107Z,2.30
2018-12-13T23:06:17.946Z,2.30
2018-12-13T23:08:46.782Z,2.30
2018-12-13T23:11:15.630Z,2.30
2018-12-13T23:13:45.237Z,2.30
2018-12-13T23:16:14.082Z,2.30
2018-12-13T23:18:42.916Z,2.30
2018-12-13T23:21:11.787Z,2.30
2018-12-13T23:23:40.620Z,2.30
2018-12-13T23:26:09.457Z,2.20
2018-12-13T23:28:38.298Z,2.20
2018-12-13T23:31:07.150Z,2.20
2018-12-13T23:33:35.999Z,2.20
2018-12-13T23:36:04.835Z,2.20
2018-12-13T23:38:34.422Z,2.20
2018-12-13T23:41:03.270Z,2.30
2018-12-13T23:43:32.106Z,2.30
2018-12-13T23:46:00.953Z,2.30
2018-12-13T23:48:29.791Z,2.30
2018-12-13T23:50:58.623Z,2.30
2018-12-13T23:53:27.465Z,2.20
2018-12-13T23:58:25.774Z,2.20
